createdAt,value
2019-04-11T13:50:51.759Z,66.79
2019-04-11T13:51:51.732Z,65.99
2019-04-11T13:52:51.711Z,67.25
2019-04-11T13:53:51.712Z,67.50
2019-04-11T13:54:51.725Z,68.70
2019-04-11T13:55:51.744Z,68.97
2019-04-11T13:56:51.758Z,69.39
2019-04-11T13:57:51.736Z,69.66
2019-04-11T13:58:51.724Z,68.38
2019-04-11T13:59:51.730Z,67.41
2019-04-11T14:00:51.763Z,65.96
2019-04-11T14:01:51.753Z,65.52
2019-04-11T14:02:51.728Z,65.51
2019-04-11T14:03:51.747Z,66.41
2019-04-11T14:04:54.220Z,66.59
2019-04-11T14:05:51.749Z,67.48
2019-04-11T14:06:51.754Z,66.67
2019-04-11T14:07:51.805Z,65.70
2019-04-11T14:08:51.735Z,66.75
2019-04-11T14:09:51.735Z,66.78
2019-04-11T14:10:51.748Z,66.12
2019-04-11T14:11:51.739Z,65.95
2019-04-11T14:12:51.751Z,66.55
2019-04-11T14:13:54.132Z,66.42
2019-04-11T14:14:51.982Z,66.88
2019-04-11T14:15:51.752Z,65.87
2019-04-11T14:16:51.755Z,65.36
2019-04-11T14:17:51.780Z,65.08
2019-04-11T14:18:51.749Z,65.40
2019-04-11T14:19:51.760Z,65.28
2019-04-11T14:20:51.787Z,65.01
2019-04-11T14:21:51.776Z,65.00
2019-04-11T14:22:51.769Z,65.73
2019-04-11T14:23:51.822Z,64.94
2019-04-11T14:24:51.796Z,65.54
2019-04-11T14:25:51.804Z,65.29
2019-04-11T14:26:51.843Z,65.01
2019-04-11T14:27:51.834Z,64.72
2019-04-11T14:28:51.876Z,64.75
2019-04-11T14:29:51.909Z,65.86
2019-04-11T14:30:52.494Z,66.56
2019-04-11T14:31:53.843Z,66.50
2019-04-11T14:32:53.910Z,66.05
2019-04-11T14:33:55.601Z,65.82
2019-04-11T14:34:51.932Z,65.45
2019-04-11T14:35:51.945Z,66.26
2019-04-11T14:36:51.940Z,65.99
2019-04-11T14:37:51.923Z,65.49
2019-04-11T14:38:52.297Z,65.94
2019-04-11T14:39:51.942Z,65.57
2019-04-11T14:41:01.190Z,65.18
2019-04-11T14:41:51.907Z,65.42
2019-04-11T14:42:51.906Z,65.12
2019-04-11T14:43:51.975Z,65.44
2019-04-11T14:44:51.932Z,65.58
2019-04-11T14:45:51.932Z,65.35
2019-04-11T14:46:51.955Z,65.81
2019-04-11T14:47:51.906Z,65.35
2019-04-11T14:48:51.909Z,65.25
2019-04-11T14:49:51.998Z,64.61
2019-04-11T14:50:51.922Z,64.35
2019-04-11T14:51:51.972Z,65.15
2019-04-11T14:52:51.975Z,64.97
2019-04-11T14:53:51.946Z,65.03
2019-04-11T14:54:51.940Z,64.80
2019-04-11T14:55:51.930Z,64.57
2019-04-11T14:56:52.402Z,64.96
2019-04-11T14:57:53.851Z,64.94
2019-04-11T14:58:53.870Z,64.42
2019-04-11T14:59:54.152Z,64.95
2019-04-11T15:00:53.927Z,65.88
2019-04-11T15:01:51.973Z,65.17
2019-04-11T15:02:51.942Z,66.52
2019-04-11T15:03:51.957Z,66.79
2019-04-11T15:04:51.955Z,66.98
2019-04-11T15:05:51.973Z,67.25
2019-04-11T15:06:51.991Z,67.02
2019-04-11T15:07:51.973Z,66.62
2019-04-11T15:08:51.972Z,65.75
2019-04-11T15:09:51.945Z,65.70
2019-04-11T15:10:51.966Z,65.22
2019-04-11T15:11:51.983Z,65.48
2019-04-11T15:12:51.977Z,66.29
2019-04-11T15:13:51.957Z,66.35
2019-04-11T15:14:52.036Z,66.06
2019-04-11T15:15:51.951Z,66.24
2019-04-11T15:16:51.950Z,66.85
2019-04-11T15:17:55.592Z,65.93
2019-04-11T15:18:51.967Z,65.08
2019-04-11T15:19:51.968Z,65.18
2019-04-11T15:20:55.174Z,64.48
2019-04-11T15:21:51.974Z,65.34
2019-04-11T15:22:51.988Z,65.25
2019-04-11T15:23:51.960Z,65.28
2019-04-11T15:24:51.974Z,65.86
2019-04-11T15:25:51.979Z,64.77
2019-04-11T15:26:52.004Z,65.04
2019-04-11T15:27:51.986Z,64.49
2019-04-11T15:28:51.997Z,64.27
2019-04-11T15:29:51.991Z,65.18
2019-04-11T15:30:51.955Z,65.07
2019-04-11T15:31:51.969Z,65.14
2019-04-11T15:32:51.974Z,64.53
2019-04-11T15:33:51.955Z,65.31
2019-04-11T15:34:53.076Z,64.22
2019-04-11T15:35:51.937Z,64.19
2019-04-11T15:36:51.970Z,64.56
2019-04-11T15:37:51.975Z,64.70
2019-04-11T15:38:51.988Z,65.14
2019-04-11T15:39:51.967Z,65.48
2019-04-11T15:40:51.971Z,65.30
2019-04-11T15:41:53.781Z,64.70
2019-04-11T15:42:51.979Z,64.61
2019-04-11T15:43:52.216Z,64.66
2019-04-11T15:44:51.999Z,64.80
2019-04-11T15:45:51.973Z,64.88
2019-04-11T15:46:52.001Z,65.73
2019-04-11T15:47:51.975Z,64.63
2019-04-11T15:48:53.795Z,64.98
2019-04-11T15:49:52.025Z,63.85
2019-04-11T15:50:52.003Z,63.66
2019-04-11T15:51:51.984Z,64.80
2019-04-11T15:52:51.999Z,63.63
2019-04-11T15:53:51.971Z,63.60
2019-04-11T15:54:51.977Z,63.83
2019-04-11T15:55:52.005Z,62.63
2019-04-11T15:56:52.032Z,62.65
2019-04-11T15:57:51.981Z,63.13
2019-04-11T15:58:52.039Z,62.30
2019-04-11T15:59:54.171Z,63.00
2019-04-11T16:00:51.978Z,62.80
2019-04-11T16:01:52.024Z,62.35
2019-04-11T16:02:52.015Z,62.03
2019-04-11T16:03:51.996Z,61.64
2019-04-11T16:04:51.992Z,62.17
2019-04-11T16:05:51.995Z,63.05
2019-04-11T16:06:51.990Z,62.49
2019-04-11T16:07:52.031Z,62.57
2019-04-11T16:08:51.978Z,64.07
2019-04-11T16:09:51.997Z,64.24
2019-04-11T16:10:51.986Z,63.60
2019-04-11T16:11:51.994Z,63.11
2019-04-11T16:12:51.999Z,62.82
2019-04-11T16:13:52.044Z,62.26
2019-04-11T16:14:52.008Z,62.08
2019-04-11T16:15:52.010Z,62.59
2019-04-11T16:16:52.004Z,62.40
2019-04-11T16:17:51.990Z,61.67
2019-04-11T16:18:51.985Z,62.26
2019-04-11T16:19:52.035Z,63.15
2019-04-11T16:20:52.012Z,62.74
2019-04-11T16:21:54.682Z,61.77
2019-04-11T16:22:54.964Z,62.01
2019-04-11T16:23:52.019Z,62.00
2019-04-11T16:24:52.010Z,62.27
2019-04-11T16:25:52.017Z,61.58
2019-04-11T16:26:52.020Z,61.64
2019-04-11T16:27:51.989Z,61.45
2019-04-11T16:28:52.027Z,61.73
2019-04-11T16:29:52.020Z,61.69
2019-04-11T16:30:52.010Z,62.00
2019-04-11T16:31:52.022Z,61.68
2019-04-11T16:32:52.021Z,61.79
2019-04-11T16:33:52.021Z,62.05
2019-04-11T16:34:55.783Z,63.16
2019-04-11T16:35:52.027Z,62.97
2019-04-11T16:36:51.981Z,62.36
2019-04-11T16:37:52.027Z,62.50
2019-04-11T16:38:52.046Z,62.76
2019-04-11T16:39:54.856Z,62.05
2019-04-11T16:40:53.454Z,63.09
2019-04-11T16:41:53.897Z,63.12
2019-04-11T16:42:53.792Z,62.96
2019-04-11T16:43:54.615Z,63.09
2019-04-11T16:44:54.851Z,63.02
2019-04-11T16:45:54.588Z,62.86
2019-04-11T16:46:54.866Z,62.47
2019-04-11T16:47:53.745Z,63.31
2019-04-11T16:48:55.648Z,62.41
2019-04-11T16:49:52.387Z,62.31
2019-04-11T16:50:52.041Z,61.41
2019-04-11T16:51:52.020Z,61.55
2019-04-11T16:52:52.052Z,61.46
2019-04-11T16:53:52.034Z,61.41
2019-04-11T16:54:52.031Z,61.25
2019-04-11T16:55:53.868Z,61.61
2019-04-11T16:56:52.047Z,60.67
2019-04-11T16:57:52.036Z,60.43
2019-04-11T16:58:52.035Z,61.01
2019-04-11T16:59:52.018Z,62.13
2019-04-11T17:00:52.657Z,61.77
2019-04-11T17:01:53.834Z,61.98
2019-04-11T17:02:54.745Z,62.65
2019-04-11T17:03:54.772Z,62.12
2019-04-11T17:04:55.646Z,62.70
2019-04-11T17:05:55.743Z,63.00
2019-04-11T17:06:55.410Z,63.88
2019-04-11T17:07:53.870Z,62.20
2019-04-11T17:08:56.082Z,61.94
2019-04-11T17:09:52.027Z,62.07
2019-04-11T17:10:52.038Z,62.97
2019-04-11T17:11:52.029Z,62.43
2019-04-11T17:12:53.856Z,62.57
2019-04-11T17:13:52.057Z,62.18
2019-04-11T17:14:52.062Z,62.09
2019-04-11T17:15:52.041Z,60.67
2019-04-11T17:16:52.046Z,60.67
2019-04-11T17:17:53.631Z,61.62
2019-04-11T17:18:52.048Z,62.84
2019-04-11T17:19:52.071Z,62.67
2019-04-11T17:20:52.059Z,62.92
2019-04-11T17:21:52.064Z,61.82
2019-04-11T17:22:52.049Z,62.13
2019-04-11T17:23:52.062Z,61.17
2019-04-11T17:24:52.045Z,61.10
2019-04-11T17:25:52.969Z,63.53
2019-04-11T17:26:52.785Z,64.12
2019-04-11T17:27:53.277Z,62.12
2019-04-11T17:28:54.331Z,61.94
2019-04-11T17:29:54.648Z,62.17
2019-04-11T17:30:55.050Z,63.08
2019-04-11T17:31:55.625Z,61.77
2019-04-11T17:32:55.366Z,62.20
2019-04-11T17:33:52.076Z,62.78
2019-04-11T17:34:52.079Z,62.96
2019-04-11T17:35:52.049Z,62.17
2019-04-11T17:36:52.075Z,61.70
2019-04-11T17:37:52.075Z,62.51
2019-04-11T17:38:52.088Z,62.19
2019-04-11T17:39:52.041Z,62.17
2019-04-11T17:40:52.099Z,62.55
2019-04-11T17:41:52.067Z,62.89
2019-04-11T17:42:52.100Z,62.95
2019-04-11T17:43:52.101Z,62.65
2019-04-11T17:44:52.101Z,62.61
2019-04-11T17:45:52.061Z,62.05
2019-04-11T17:46:52.068Z,61.45
2019-04-11T17:47:52.048Z,60.85
2019-04-11T17:48:52.081Z,60.92
2019-04-11T17:49:52.079Z,62.30
2019-04-11T17:50:52.080Z,62.69
2019-04-11T17:51:55.970Z,62.07
2019-04-11T17:52:54.385Z,61.48
2019-04-11T17:53:54.808Z,61.80
2019-04-11T17:54:54.165Z,61.18
2019-04-11T17:55:54.075Z,62.43
2019-04-11T17:56:54.581Z,63.10
2019-04-11T17:57:52.071Z,63.45
2019-04-11T17:58:52.088Z,62.49
2019-04-11T17:59:52.074Z,62.12
2019-04-11T18:00:52.079Z,62.38
2019-04-11T18:01:52.098Z,62.63
2019-04-11T18:02:52.726Z,63.30
2019-04-11T18:03:52.058Z,63.56
2019-04-11T18:04:52.201Z,63.17
2019-04-11T18:05:52.075Z,62.55
2019-04-11T18:06:52.093Z,62.63
2019-04-11T18:07:52.147Z,62.60
2019-04-11T18:08:52.206Z,62.36
2019-04-11T18:09:55.791Z,62.43
2019-04-11T18:10:55.730Z,62.96
2019-04-11T18:11:55.802Z,62.71
2019-04-11T18:12:55.770Z,62.59
2019-04-11T18:13:52.134Z,62.76
2019-04-11T18:14:52.123Z,63.37
2019-04-11T18:15:52.059Z,63.44
2019-04-11T18:16:52.077Z,62.75
2019-04-11T18:17:52.084Z,63.72
2019-04-11T18:18:52.114Z,63.60
2019-04-11T18:19:52.109Z,63.60
2019-04-11T18:20:52.097Z,62.68
2019-04-11T18:21:52.085Z,62.33
2019-04-11T18:22:52.099Z,63.46
2019-04-11T18:23:52.109Z,63.98
2019-04-11T18:24:52.122Z,64.10
2019-04-11T18:25:52.203Z,64.13
2019-04-11T18:26:52.508Z,64.22
2019-04-11T18:27:52.468Z,63.91
2019-04-11T18:28:52.603Z,64.19
2019-04-11T18:29:52.991Z,64.09
2019-04-11T18:30:54.081Z,64.27
2019-04-11T18:31:52.105Z,63.93
2019-04-11T18:32:52.091Z,64.28
2019-04-11T18:33:52.088Z,63.80
2019-04-11T18:34:52.104Z,63.01
2019-04-11T18:35:52.114Z,63.05
2019-04-11T18:36:52.106Z,63.46
2019-04-11T18:37:52.125Z,63.87
2019-04-11T18:38:52.098Z,63.37
2019-04-11T18:39:52.105Z,62.32
2019-04-11T18:40:52.139Z,61.87
2019-04-11T18:41:52.092Z,61.49
2019-04-11T18:42:52.127Z,61.89
2019-04-11T18:43:52.121Z,61.75
2019-04-11T18:44:52.116Z,61.79
2019-04-11T18:45:52.138Z,62.05
2019-04-11T18:46:52.132Z,62.03
2019-04-11T18:47:52.123Z,61.80
2019-04-11T18:48:54.396Z,62.23
2019-04-11T18:49:53.221Z,61.55
2019-04-11T18:50:53.199Z,61.99
2019-04-11T18:51:53.081Z,63.02
2019-04-11T18:52:52.110Z,63.66
2019-04-11T18:53:52.104Z,63.88
2019-04-11T18:54:52.110Z,64.04
2019-04-11T18:55:52.106Z,63.76
2019-04-11T18:56:52.091Z,63.38
2019-04-11T18:57:52.346Z,63.06
2019-04-11T18:58:52.115Z,62.91
2019-04-11T18:59:52.120Z,62.53
2019-04-11T19:00:52.143Z,62.74
2019-04-11T19:01:52.140Z,62.23
2019-04-11T19:02:52.112Z,63.24
2019-04-11T19:03:52.104Z,63.48
2019-04-11T19:04:52.149Z,63.19
2019-04-11T19:05:52.116Z,62.94
2019-04-11T19:06:52.145Z,63.98
2019-04-11T19:07:52.124Z,63.69
2019-04-11T19:08:52.133Z,63.41
2019-04-11T19:09:52.131Z,63.27
2019-04-11T19:10:52.164Z,63.54
2019-04-11T19:11:52.167Z,63.58
2019-04-11T19:12:52.208Z,63.74
2019-04-11T19:13:52.205Z,63.50
2019-04-11T19:14:52.220Z,62.94
2019-04-11T19:15:52.219Z,62.93
2019-04-11T19:16:52.238Z,63.48
2019-04-11T19:18:05.691Z,64.25
2019-04-11T19:18:52.258Z,64.47
2019-04-11T19:19:52.259Z,64.42
2019-04-11T19:20:52.240Z,63.83
2019-04-11T19:21:52.257Z,63.12
2019-04-11T19:22:52.271Z,63.36
2019-04-11T19:23:52.267Z,63.26
2019-04-11T19:24:52.265Z,63.03
2019-04-11T19:25:52.266Z,63.00
2019-04-11T19:26:52.263Z,64.04
2019-04-11T19:27:54.217Z,64.69
2019-04-11T19:28:54.860Z,64.56
2019-04-11T19:29:55.618Z,63.82
2019-04-11T19:30:53.995Z,63.51
2019-04-11T19:31:52.250Z,63.72
2019-04-11T19:32:52.267Z,63.72
2019-04-11T19:33:52.450Z,63.77
2019-04-11T19:34:52.255Z,64.10
2019-04-11T19:35:52.276Z,64.55
2019-04-11T19:36:52.281Z,63.40
2019-04-11T19:37:52.313Z,63.47
2019-04-11T19:38:52.287Z,63.74
2019-04-11T19:39:52.278Z,63.90
2019-04-11T19:40:52.281Z,64.32
2019-04-11T19:41:52.257Z,63.42
2019-04-11T19:42:52.306Z,62.73
2019-04-11T19:43:52.314Z,63.81
2019-04-11T19:44:52.253Z,63.96
2019-04-11T19:45:52.287Z,64.29
2019-04-11T19:46:52.282Z,63.40
2019-04-11T19:47:52.903Z,62.58
2019-04-11T19:48:55.406Z,63.08
2019-04-11T19:49:52.297Z,63.90
2019-04-11T19:50:52.283Z,63.66
2019-04-11T19:51:52.293Z,63.76
2019-04-11T19:52:52.294Z,63.65
2019-04-11T19:53:52.287Z,63.50
2019-04-11T19:54:52.255Z,63.18
2019-04-11T19:55:52.487Z,63.50
2019-04-11T19:56:52.267Z,62.57
2019-04-11T19:57:52.288Z,62.80
2019-04-11T19:58:52.310Z,62.20
2019-04-11T19:59:52.314Z,63.18
2019-04-11T20:00:53.915Z,62.80
2019-04-11T20:01:53.268Z,63.21
2019-04-11T20:02:54.102Z,63.52
2019-04-11T20:03:54.144Z,63.45
2019-04-11T20:04:52.300Z,63.91
2019-04-11T20:05:52.298Z,64.17
2019-04-11T20:06:52.281Z,64.08
2019-04-11T20:07:52.276Z,63.98
2019-04-11T20:08:52.303Z,64.30
2019-04-11T20:09:52.261Z,64.47
2019-04-11T20:10:52.328Z,64.56
2019-04-11T20:11:52.316Z,63.06
2019-04-11T20:12:52.276Z,62.07
2019-04-11T20:13:52.338Z,62.66
2019-04-11T20:14:52.313Z,63.32
2019-04-11T20:15:52.370Z,61.90
2019-04-11T20:16:52.389Z,61.42
2019-04-11T20:17:52.362Z,61.23
2019-04-11T20:18:56.668Z,61.47
2019-04-11T20:20:00.833Z,60.68
2019-04-11T20:20:52.441Z,61.17
2019-04-11T20:21:52.407Z,61.38
2019-04-11T20:22:59.007Z,61.24
2019-04-11T20:23:52.389Z,61.79
2019-04-11T20:24:52.418Z,61.71
2019-04-11T20:25:52.378Z,60.56
2019-04-11T20:26:52.388Z,61.67
2019-04-11T20:27:52.425Z,62.05
2019-04-11T20:28:52.397Z,61.23
2019-04-11T20:29:55.301Z,60.60
2019-04-11T20:30:52.361Z,59.30
2019-04-11T20:31:52.408Z,58.94
2019-04-11T20:32:52.413Z,59.52
2019-04-11T20:33:52.404Z,59.99
2019-04-11T20:34:52.401Z,59.75
2019-04-11T20:35:52.388Z,59.45
2019-04-11T20:36:52.393Z,58.86
2019-04-11T20:37:54.228Z,59.78
2019-04-11T20:38:52.436Z,58.99
2019-04-11T20:39:52.390Z,58.48
2019-04-11T20:40:53.230Z,59.09
2019-04-11T20:41:53.527Z,59.16
2019-04-11T20:42:54.410Z,58.40
2019-04-11T20:43:55.887Z,59.59
2019-04-11T20:44:52.393Z,59.12
2019-04-11T20:45:53.479Z,58.48
2019-04-11T20:46:52.408Z,58.26
2019-04-11T20:47:52.414Z,59.02
2019-04-11T20:48:54.578Z,58.12
2019-04-11T20:49:52.431Z,58.51
2019-04-11T20:50:52.408Z,58.26
2019-04-11T20:51:52.497Z,57.71
2019-04-11T20:52:52.429Z,57.24
2019-04-11T20:53:52.407Z,57.12
2019-04-11T20:54:52.441Z,58.23
2019-04-11T20:55:52.439Z,58.03
2019-04-11T20:56:52.416Z,58.73
2019-04-11T20:57:52.420Z,58.06
2019-04-11T20:58:52.471Z,58.13
2019-04-11T20:59:52.459Z,56.84
2019-04-11T21:00:55.658Z,56.69
2019-04-11T21:01:53.698Z,56.27
2019-04-11T21:02:52.421Z,56.37
2019-04-11T21:03:52.422Z,56.09
2019-04-11T21:04:52.465Z,57.00
2019-04-11T21:05:52.443Z,57.25
2019-04-11T21:06:52.459Z,57.94
2019-04-11T21:07:52.452Z,58.04
2019-04-11T21:08:52.431Z,56.51
2019-04-11T21:09:52.400Z,55.59
2019-04-11T21:10:52.479Z,56.12
2019-04-11T21:11:52.452Z,55.89
2019-04-11T21:12:52.449Z,56.72
2019-04-11T21:13:52.468Z,56.08
2019-04-11T21:14:52.433Z,55.88
2019-04-11T21:15:52.435Z,55.79
2019-04-11T21:16:52.430Z,55.89
2019-04-11T21:17:53.623Z,57.03
2019-04-11T21:18:54.497Z,56.59
2019-04-11T21:19:53.274Z,55.46
2019-04-11T21:20:55.047Z,55.27
2019-04-11T21:21:53.330Z,55.21
2019-04-11T21:22:54.012Z,54.59
2019-04-11T21:23:52.461Z,54.72
2019-04-11T21:24:52.449Z,55.28
2019-04-11T21:25:52.623Z,55.33
2019-04-11T21:26:52.448Z,56.54
2019-04-11T21:27:52.439Z,55.00
2019-04-11T21:28:52.439Z,54.85
2019-04-11T21:29:52.456Z,54.53
2019-04-11T21:30:52.460Z,55.03
2019-04-11T21:31:52.441Z,54.58
2019-04-11T21:32:52.431Z,54.46
2019-04-11T21:33:52.455Z,54.67
2019-04-11T21:34:52.435Z,56.43
2019-04-11T21:35:52.464Z,56.68
2019-04-11T21:36:52.449Z,56.35
2019-04-11T21:37:52.488Z,55.31
2019-04-11T21:38:52.439Z,56.34
2019-04-11T21:39:52.450Z,55.10
2019-04-11T21:40:52.459Z,54.37
2019-04-11T21:41:52.466Z,54.83
2019-04-11T21:42:52.433Z,55.22
2019-04-11T21:43:52.463Z,53.93
2019-04-11T21:44:52.465Z,54.17
2019-04-11T21:45:52.464Z,54.57
2019-04-11T21:46:52.441Z,54.17
2019-04-11T21:47:52.424Z,55.15
2019-04-11T21:48:52.464Z,55.24
2019-04-11T21:49:52.481Z,55.10
2019-04-11T21:50:52.448Z,54.95
2019-04-11T21:51:52.461Z,53.90
2019-04-11T21:52:52.448Z,53.87
2019-04-11T21:53:52.463Z,53.82
2019-04-11T21:54:52.470Z,53.37
2019-04-11T21:55:52.479Z,55.08
2019-04-11T21:56:52.482Z,55.01
2019-04-11T21:57:52.467Z,55.23
2019-04-11T21:58:52.498Z,55.02
2019-04-11T21:59:52.479Z,54.37
2019-04-11T22:00:54.337Z,53.20
2019-04-11T22:01:54.110Z,53.47
2019-04-11T22:02:54.375Z,53.98
2019-04-11T22:03:55.772Z,54.12
2019-04-11T22:04:52.496Z,53.13
2019-04-11T22:05:52.485Z,54.14
2019-04-11T22:06:52.481Z,54.68
2019-04-11T22:07:52.467Z,54.11
2019-04-11T22:08:52.481Z,54.77
2019-04-11T22:09:52.456Z,54.23
2019-04-11T22:10:52.506Z,55.22
2019-04-11T22:11:52.468Z,54.40
2019-04-11T22:12:52.480Z,54.17
2019-04-11T22:13:52.465Z,54.07
2019-04-11T22:14:52.470Z,54.95
2019-04-11T22:15:52.495Z,56.14
2019-04-11T22:16:54.928Z,56.26
2019-04-11T22:17:52.495Z,55.98
2019-04-11T22:18:52.493Z,56.55
2019-04-11T22:19:52.469Z,56.02
2019-04-11T22:20:52.472Z,55.95
2019-04-11T22:21:52.465Z,55.02
2019-04-11T22:22:52.510Z,54.95
2019-04-11T22:23:52.477Z,54.97
2019-04-11T22:24:52.478Z,55.92
2019-04-11T22:25:52.477Z,55.08
2019-04-11T22:26:52.485Z,54.50
2019-04-11T22:27:53.895Z,55.14
2019-04-11T22:28:54.931Z,56.07
2019-04-11T22:29:54.963Z,55.58
2019-04-11T22:30:54.889Z,53.80
2019-04-11T22:31:55.817Z,55.48
2019-04-11T22:32:52.488Z,54.28
2019-04-11T22:33:52.492Z,53.51
2019-04-11T22:34:52.533Z,53.93
2019-04-11T22:35:52.489Z,54.45
2019-04-11T22:36:52.511Z,55.10
2019-04-11T22:37:52.482Z,53.78
2019-04-11T22:38:52.483Z,54.25
2019-04-11T22:39:52.490Z,54.77
2019-04-11T22:40:52.509Z,54.40
2019-04-11T22:41:52.486Z,53.94
2019-04-11T22:42:52.520Z,54.67
2019-04-11T22:43:52.483Z,54.91
2019-04-11T22:44:52.502Z,53.63
2019-04-11T22:45:52.469Z,53.72
2019-04-11T22:46:52.526Z,54.54
2019-04-11T22:47:52.504Z,54.66
2019-04-11T22:48:52.514Z,54.39
2019-04-11T22:49:52.505Z,53.38
2019-04-11T22:50:52.499Z,53.14
2019-04-11T22:51:52.508Z,52.76
2019-04-11T22:52:52.516Z,52.96
2019-04-11T22:54:00.304Z,52.33
2019-04-11T22:54:52.520Z,53.49
2019-04-11T22:55:52.501Z,53.53
2019-04-11T22:56:52.490Z,54.35
2019-04-11T22:57:52.506Z,53.85
2019-04-11T22:58:52.506Z,54.00
2019-04-11T22:59:52.529Z,53.58
2019-04-11T23:00:52.528Z,54.53
2019-04-11T23:01:52.501Z,53.22
2019-04-11T23:02:52.477Z,54.28
2019-04-11T23:03:52.502Z,53.37
2019-04-11T23:04:52.523Z,53.37
2019-04-11T23:05:52.516Z,53.83
2019-04-11T23:06:52.542Z,53.13
2019-04-11T23:07:52.534Z,53.00
2019-04-11T23:08:52.504Z,52.94
2019-04-11T23:09:52.518Z,54.83
2019-04-11T23:10:52.527Z,55.31
2019-04-11T23:11:52.527Z,55.10
2019-04-11T23:12:52.545Z,52.82
2019-04-11T23:13:52.538Z,52.74
2019-04-11T23:14:52.505Z,52.33
2019-04-11T23:15:52.514Z,52.88
2019-04-11T23:16:52.514Z,51.95
2019-04-11T23:17:52.523Z,52.42
2019-04-11T23:18:52.532Z,52.63
2019-04-11T23:19:52.556Z,52.65
2019-04-11T23:20:52.508Z,52.54
2019-04-11T23:21:52.503Z,52.12
2019-04-11T23:22:52.512Z,52.75
2019-04-11T23:23:52.537Z,53.16
2019-04-11T23:24:52.560Z,52.27
2019-04-11T23:25:52.533Z,51.94
2019-04-11T23:26:52.526Z,52.10
2019-04-11T23:27:52.519Z,51.53
2019-04-11T23:28:52.560Z,52.26
2019-04-11T23:29:52.534Z,52.47
2019-04-11T23:30:52.535Z,52.93
2019-04-11T23:31:52.529Z,52.35
2019-04-11T23:32:52.509Z,52.09
2019-04-11T23:33:52.672Z,51.85
2019-04-11T23:34:53.296Z,51.76
2019-04-11T23:35:52.521Z,52.31
2019-04-11T23:36:52.539Z,53.36
2019-04-11T23:37:52.551Z,53.46
2019-04-11T23:38:52.960Z,53.73
2019-04-11T23:39:52.515Z,52.97
2019-04-11T23:40:52.560Z,53.02
2019-04-11T23:41:52.539Z,53.92
2019-04-11T23:42:52.530Z,53.80
2019-04-11T23:43:52.565Z,54.26
2019-04-11T23:44:52.547Z,53.66
2019-04-11T23:45:52.509Z,52.59
2019-04-11T23:46:52.702Z,51.71
2019-04-11T23:47:54.121Z,53.32
2019-04-11T23:48:55.540Z,53.46
2019-04-11T23:49:55.141Z,54.00
2019-04-11T23:50:54.801Z,54.10
2019-04-11T23:51:55.656Z,52.70
2019-04-11T23:52:57.048Z,54.04
2019-04-11T23:53:52.572Z,53.83
2019-04-11T23:54:52.565Z,53.89
2019-04-11T23:55:52.565Z,53.24
2019-04-11T23:56:52.529Z,52.15
2019-04-11T23:57:52.531Z,52.45
2019-04-11T23:58:52.562Z,52.31
2019-04-11T23:59:52.573Z,52.11
